createdAt,value
2022-08-19T00:02:01.580Z,22.31
2022-08-19T00:04:33.889Z,22.32
2022-08-19T00:07:04.755Z,22.32
2022-08-19T00:09:33.638Z,22.32
2022-08-19T00:12:02.660Z,22.33
2022-08-19T00:14:33.170Z,22.34
2022-08-19T00:17:02.280Z,22.34
2022-08-19T00:19:31.230Z,22.34
2022-08-19T00:21:59.973Z,22.34
2022-08-19T00:24:29.988Z,22.34
2022-08-19T00:27:25.060Z,22.34
2022-08-19T00:29:47.198Z,22.32
2022-08-19T00:32:21.815Z,22.31
2022-08-19T00:34:50.221Z,22.30
2022-08-19T00:37:19.008Z,22.26
2022-08-19T00:39:49.212Z,22.23
2022-08-19T00:42:17.879Z,22.19
2022-08-19T00:44:46.453Z,22.17
2022-08-19T00:47:16.169Z,22.14
2022-08-19T00:49:52.146Z,22.09
2022-08-19T00:52:28.064Z,22.05
2022-08-19T00:54:59.513Z,22.01
2022-08-19T00:57:34.557Z,21.98
2022-08-19T01:00:06.649Z,21.96
2022-08-19T01:02:35.382Z,21.92
2022-08-19T01:05:10.885Z,21.91
2022-08-19T01:07:41.525Z,21.89
2022-08-19T01:10:16.420Z,21.85
2022-08-19T01:12:45.380Z,21.85
2022-08-19T01:15:17.759Z,21.83
2022-08-19T01:17:47.857Z,21.82
2022-08-19T01:20:21.120Z,21.83
2022-08-19T01:22:54.962Z,21.82
2022-08-19T01:25:29.361Z,21.81
2022-08-19T01:28:09.890Z,21.81
2022-08-19T01:30:39.611Z,21.80
2022-08-19T01:33:12.962Z,21.79
2022-08-19T01:35:42.159Z,21.79
2022-08-19T01:38:21.369Z,21.78
2022-08-19T01:40:50.297Z,21.77
2022-08-19T01:43:19.982Z,21.76
2022-08-19T01:45:48.799Z,21.76
2022-08-19T01:48:17.510Z,21.76
2022-08-19T01:50:46.221Z,21.75
2022-08-19T01:53:16.198Z,21.74
2022-08-19T01:55:46.134Z,21.73
2022-08-19T01:58:21.496Z,21.72
2022-08-19T02:00:50.477Z,21.73
2022-08-19T02:03:19.233Z,21.73
2022-08-19T02:05:47.902Z,21.75
2022-08-19T02:08:17.749Z,21.76
2022-08-19T02:10:46.811Z,21.76
2022-08-19T02:13:15.621Z,21.75
2022-08-19T02:15:49.603Z,21.76
2022-08-19T02:18:18.060Z,21.75
2022-08-19T02:20:48.520Z,21.76
2022-08-19T02:23:19.204Z,21.77
2022-08-19T02:25:50.145Z,21.77
2022-08-19T02:28:19.077Z,21.77
2022-08-19T02:30:49.776Z,21.78
2022-08-19T02:33:19.029Z,21.77
2022-08-19T02:35:49.000Z,21.77
2022-08-19T02:38:26.893Z,21.76
2022-08-19T02:40:58.582Z,21.75
2022-08-19T02:43:28.519Z,21.74
2022-08-19T02:45:57.014Z,21.72
2022-08-19T02:48:27.452Z,21.72
2022-08-19T02:51:02.494Z,21.70
2022-08-19T02:53:32.412Z,21.71
2022-08-19T02:56:00.822Z,21.69
2022-08-19T02:58:29.205Z,21.67
2022-08-19T03:00:59.423Z,21.65
2022-08-19T03:03:28.437Z,21.64
2022-08-19T03:06:09.042Z,21.61
2022-08-19T03:08:39.808Z,21.60
2022-08-19T03:11:08.663Z,21.60
2022-08-19T03:13:37.021Z,21.59
2022-08-19T03:16:07.783Z,21.58
2022-08-19T03:18:36.177Z,21.56
2022-08-19T03:21:05.264Z,21.56
2022-08-19T03:23:34.699Z,21.53
2022-08-19T03:26:16.400Z,21.51
2022-08-19T03:28:58.335Z,21.51
2022-08-19T03:31:45.663Z,21.48
2022-08-19T03:34:27.149Z,21.46
2022-08-19T03:37:06.680Z,21.44
2022-08-19T03:39:35.494Z,21.45
2022-08-19T03:42:32.263Z,21.45
2022-08-19T03:45:11.429Z,21.42
2022-08-19T03:47:42.852Z,21.42
2022-08-19T03:50:11.809Z,21.42
2022-08-19T03:52:40.589Z,21.41
2022-08-19T03:55:14.260Z,21.41
2022-08-19T03:57:44.019Z,21.38
2022-08-19T04:00:14.395Z,21.37
2022-08-19T04:02:58.462Z,21.34
2022-08-19T04:05:30.482Z,21.30
2022-08-19T04:08:00.063Z,21.27
2022-08-19T04:10:29.615Z,21.24
2022-08-19T04:12:59.474Z,21.22
2022-08-19T04:15:29.769Z,21.19
2022-08-19T04:17:58.142Z,21.16
2022-08-19T04:20:26.519Z,21.15
2022-08-19T04:22:55.004Z,21.14
2022-08-19T04:25:23.497Z,21.12
2022-08-19T04:27:51.965Z,21.10
2022-08-19T04:30:23.522Z,21.10
2022-08-19T04:32:52.117Z,21.10
2022-08-19T04:35:24.441Z,21.09
2022-08-19T04:37:53.446Z,21.09
2022-08-19T04:40:39.536Z,21.09
2022-08-19T04:43:08.062Z,21.11
2022-08-19T04:45:43.740Z,21.13
2022-08-19T04:48:27.163Z,21.15
2022-08-19T04:50:59.475Z,21.16
2022-08-19T04:53:29.625Z,21.16
2022-08-19T04:56:09.649Z,21.17
2022-08-19T04:58:42.727Z,21.18
2022-08-19T05:01:15.196Z,21.18
2022-08-19T05:03:43.954Z,21.19
2022-08-19T05:06:15.558Z,21.23
2022-08-19T05:08:46.193Z,21.26
2022-08-19T05:11:19.107Z,21.31
2022-08-19T05:13:50.525Z,21.35
2022-08-19T05:16:22.810Z,21.40
2022-08-19T05:19:09.822Z,21.45
2022-08-19T05:22:01.325Z,21.50
2022-08-19T05:24:30.565Z,21.55
2022-08-19T05:26:59.760Z,21.58
2022-08-19T05:29:29.984Z,21.60
2022-08-19T05:32:09.270Z,21.63
2022-08-19T05:34:38.984Z,21.63
2022-08-19T05:37:09.285Z,21.65
2022-08-19T05:39:39.457Z,21.67
2022-08-19T05:42:12.365Z,21.67
2022-08-19T05:44:44.253Z,21.68
2022-08-19T05:47:15.790Z,21.70
2022-08-19T05:49:45.074Z,21.74
2022-08-19T05:52:16.438Z,21.77
2022-08-19T05:54:51.012Z,21.80
2022-08-19T05:57:20.766Z,21.81
2022-08-19T05:59:53.276Z,21.84
2022-08-19T06:02:28.508Z,21.86
2022-08-19T06:04:56.976Z,21.88
2022-08-19T06:07:25.571Z,21.92
2022-08-19T06:10:00.159Z,21.96
2022-08-19T06:12:32.639Z,21.97
2022-08-19T06:15:02.397Z,22.00
2022-08-19T06:17:32.739Z,22.01
2022-08-19T06:20:01.300Z,22.05
2022-08-19T06:22:30.366Z,22.08
2022-08-19T06:24:58.795Z,22.12
2022-08-19T06:27:27.164Z,22.16
2022-08-19T06:29:55.520Z,22.22
2022-08-19T06:32:23.911Z,22.30
2022-08-19T06:34:53.660Z,22.38
2022-08-19T06:37:22.749Z,22.45
2022-08-19T06:39:52.113Z,22.51
2022-08-19T06:42:21.739Z,22.57
2022-08-19T06:44:53.533Z,22.65
2022-08-19T06:47:26.521Z,22.71
2022-08-19T06:50:03.732Z,22.76
2022-08-19T06:52:34.233Z,22.76
2022-08-19T06:55:06.229Z,22.83
2022-08-19T06:57:36.384Z,22.87
2022-08-19T07:00:13.041Z,22.92
2022-08-19T07:02:44.685Z,23.00
2022-08-19T07:05:18.953Z,23.05
2022-08-19T07:07:48.796Z,23.15
2022-08-19T07:10:20.173Z,23.30
2022-08-19T07:12:48.601Z,23.50
2022-08-19T07:15:17.212Z,23.79
2022-08-19T07:17:49.320Z,24.19
2022-08-19T07:20:22.836Z,24.59
2022-08-19T07:22:57.251Z,24.92
2022-08-19T07:25:32.258Z,25.14
2022-08-19T07:28:01.828Z,25.36
2022-08-19T07:30:30.424Z,25.55
2022-08-19T07:33:00.204Z,25.75
2022-08-19T07:35:34.504Z,25.91
2022-08-19T07:38:04.689Z,26.11
2022-08-19T07:40:33.290Z,26.22
2022-08-19T07:43:01.977Z,26.29
2022-08-19T07:45:30.485Z,26.38
2022-08-19T07:47:59.465Z,26.50
2022-08-19T07:50:28.044Z,26.66
2022-08-19T07:52:57.987Z,26.86
2022-08-19T07:55:41.794Z,26.99
2022-08-19T07:58:15.112Z,27.20
2022-08-19T08:00:44.612Z,27.48
2022-08-19T08:03:13.572Z,27.83
2022-08-19T08:06:00.052Z,28.11
2022-08-19T08:08:48.580Z,28.56
2022-08-19T08:11:20.736Z,29.00
2022-08-19T08:14:00.760Z,29.33
2022-08-19T08:16:35.721Z,29.58
2022-08-19T08:19:20.280Z,29.77
2022-08-19T08:21:52.688Z,29.82
2022-08-19T08:24:22.461Z,29.77
2022-08-19T08:26:57.792Z,29.74
2022-08-19T08:29:26.764Z,29.52
2022-08-19T08:32:03.389Z,29.37
2022-08-19T08:34:31.865Z,29.24
2022-08-19T08:37:00.368Z,29.17
2022-08-19T08:39:30.427Z,29.03
2022-08-19T08:42:17.785Z,28.84
2022-08-19T08:47:40.933Z,28.45
2022-08-19T08:50:15.634Z,28.55
2022-08-19T08:52:49.019Z,28.65
2022-08-19T08:55:24.741Z,28.71
2022-08-19T08:58:01.147Z,28.76
2022-08-19T09:00:34.940Z,28.72
2022-08-19T09:03:06.525Z,28.61
2022-08-19T09:05:50.385Z,28.71
2022-08-19T09:08:28.536Z,29.14
2022-08-19T09:10:59.364Z,29.60
2022-08-19T09:13:38.325Z,30.01
2022-08-19T09:16:12.431Z,30.16
2022-08-19T09:18:44.884Z,30.03
2022-08-19T09:21:14.109Z,30.24
2022-08-19T09:23:44.270Z,30.57
2022-08-19T09:26:17.749Z,30.52
2022-08-19T09:28:51.785Z,30.42
2022-08-19T09:31:22.860Z,30.22
2022-08-19T09:33:53.343Z,30.09
2022-08-19T09:36:34.500Z,30.02
2022-08-19T09:39:04.684Z,29.95
2022-08-19T09:41:47.262Z,29.84
2022-08-19T09:44:16.193Z,29.73
2022-08-19T09:46:44.806Z,29.71
2022-08-19T09:49:13.475Z,29.86
2022-08-19T09:51:41.861Z,30.36
2022-08-19T09:54:11.437Z,30.82
2022-08-19T09:56:40.000Z,31.14
2022-08-19T09:59:13.047Z,31.21
2022-08-19T10:01:41.790Z,31.03
2022-08-19T10:04:19.956Z,30.82
2022-08-19T10:06:51.799Z,30.84
2022-08-19T10:09:34.016Z,30.87
2022-08-19T10:12:04.081Z,31.11
2022-08-19T10:14:33.973Z,31.49
2022-08-19T10:17:19.835Z,31.82
2022-08-19T10:19:55.521Z,32.26
2022-08-19T10:22:25.668Z,32.71
2022-08-19T10:24:55.293Z,33.00
2022-08-19T10:27:23.904Z,33.04
2022-08-19T10:29:56.398Z,33.00
2022-08-19T10:32:32.036Z,32.80
2022-08-19T10:35:05.457Z,32.71
2022-08-19T10:37:35.259Z,32.90
2022-08-19T10:40:05.688Z,33.22
2022-08-19T10:42:34.333Z,33.55
2022-08-19T10:45:05.060Z,33.88
2022-08-19T10:47:33.697Z,34.15
2022-08-19T10:50:19.257Z,34.34
2022-08-19T10:52:51.005Z,34.62
2022-08-19T10:55:45.488Z,34.95
2022-08-19T10:58:15.892Z,35.11
2022-08-19T11:00:54.080Z,35.30
2022-08-19T11:03:22.902Z,35.55
2022-08-19T11:06:01.295Z,35.34
2022-08-19T11:08:31.672Z,35.07
2022-08-19T11:11:04.166Z,35.10
2022-08-19T11:13:36.712Z,35.26
2022-08-19T11:16:09.516Z,35.44
2022-08-19T11:18:39.582Z,35.62
2022-08-19T11:21:10.877Z,35.73
2022-08-19T11:23:39.616Z,35.61
2022-08-19T11:26:08.080Z,35.70
2022-08-19T11:28:36.816Z,35.93
2022-08-19T11:31:11.014Z,36.15
2022-08-19T11:33:39.768Z,36.12
2022-08-19T11:36:08.936Z,36.07
2022-08-19T11:38:38.760Z,36.29
2022-08-19T11:41:09.475Z,36.46
2022-08-19T11:43:40.557Z,36.22
2022-08-19T11:46:13.873Z,35.82
2022-08-19T11:48:43.065Z,35.82
2022-08-19T11:51:16.660Z,35.71
2022-08-19T11:53:45.629Z,35.71
2022-08-19T11:56:14.856Z,36.09
2022-08-19T11:58:44.559Z,36.57
2022-08-19T12:01:17.540Z,36.79
2022-08-19T12:03:47.513Z,36.96
2022-08-19T12:06:20.538Z,36.82
2022-08-19T12:08:49.422Z,36.39
2022-08-19T12:11:18.071Z,36.26
2022-08-19T12:13:47.342Z,36.07
2022-08-19T12:16:20.184Z,35.99
2022-08-19T12:18:49.383Z,35.73
2022-08-19T12:21:22.138Z,35.56
2022-08-19T12:23:55.687Z,35.23
2022-08-19T12:26:25.525Z,34.90
2022-08-19T12:28:54.578Z,34.83
2022-08-19T12:31:24.436Z,35.01
2022-08-19T12:33:53.280Z,35.02
2022-08-19T12:36:22.934Z,35.23
2022-08-19T12:38:51.493Z,35.65
2022-08-19T12:41:23.164Z,36.20
2022-08-19T12:43:52.105Z,36.72
2022-08-19T12:46:23.781Z,37.04
2022-08-19T12:48:56.091Z,37.12
2022-08-19T12:51:26.200Z,37.11
2022-08-19T12:53:54.626Z,36.94
2022-08-19T12:56:23.507Z,37.07
2022-08-19T12:58:52.877Z,36.85
2022-08-19T13:01:23.569Z,36.41
2022-08-19T13:03:54.145Z,36.24
2022-08-19T13:06:22.573Z,36.53
2022-08-19T13:08:51.081Z,36.93
2022-08-19T13:11:25.254Z,37.38
2022-08-19T13:13:56.329Z,37.82
2022-08-19T13:16:28.468Z,38.18
2022-08-19T13:18:58.213Z,38.53
2022-08-19T13:21:30.850Z,38.71
2022-08-19T13:23:59.406Z,38.11
2022-08-19T13:26:27.828Z,37.33
2022-08-19T13:29:13.929Z,36.62
2022-08-19T13:32:01.764Z,35.88
2022-08-19T13:34:36.007Z,35.41
2022-08-19T13:37:06.553Z,35.91
2022-08-19T13:39:36.411Z,36.67
2022-08-19T13:42:06.547Z,37.44
2022-08-19T13:44:35.058Z,38.22
2022-08-19T13:47:07.937Z,38.85
2022-08-19T13:49:38.069Z,39.49
2022-08-19T13:52:07.791Z,39.96
2022-08-19T13:54:36.120Z,40.12
2022-08-19T13:57:05.014Z,40.49
2022-08-19T13:59:34.028Z,40.82
2022-08-19T14:02:06.410Z,40.97
2022-08-19T14:04:34.944Z,40.97
2022-08-19T14:07:04.336Z,40.67
2022-08-19T14:09:32.921Z,40.29
2022-08-19T14:12:01.484Z,39.99
2022-08-19T14:14:30.057Z,40.04
2022-08-19T14:16:58.421Z,40.15
2022-08-19T14:19:30.001Z,40.39
2022-08-19T14:21:59.547Z,40.44
2022-08-19T14:24:28.031Z,40.53
2022-08-19T14:26:56.486Z,40.66
2022-08-19T14:29:24.883Z,40.64
2022-08-19T14:31:53.306Z,40.39
2022-08-19T14:34:21.746Z,40.25
2022-08-19T14:36:51.580Z,40.11
2022-08-19T14:39:20.172Z,39.67
2022-08-19T14:41:48.541Z,39.27
2022-08-19T14:44:17.025Z,38.51
2022-08-19T14:46:49.687Z,37.95
2022-08-19T14:49:18.932Z,37.40
2022-08-19T14:51:48.613Z,37.00
2022-08-19T14:54:18.437Z,36.92
2022-08-19T14:56:46.954Z,37.11
2022-08-19T14:59:15.552Z,37.49
2022-08-19T15:01:44.302Z,37.92
2022-08-19T15:04:12.736Z,37.92
2022-08-19T15:06:43.311Z,37.56
2022-08-19T15:09:12.219Z,37.42
2022-08-19T15:11:41.954Z,37.60
2022-08-19T15:14:10.966Z,37.80
2022-08-19T15:16:42.600Z,37.84
2022-08-19T15:19:11.377Z,37.91
2022-08-19T15:21:39.898Z,38.02
2022-08-19T15:24:10.085Z,38.01
2022-08-19T15:26:38.661Z,37.55
2022-08-19T15:29:09.193Z,37.01
2022-08-19T15:31:37.962Z,36.46
2022-08-19T15:34:07.710Z,36.49
2022-08-19T15:36:36.544Z,36.72
2022-08-19T15:39:07.407Z,36.69
2022-08-19T15:41:37.126Z,36.34
2022-08-19T15:44:13.206Z,35.90
2022-08-19T15:46:45.310Z,35.28
2022-08-19T15:49:16.072Z,34.78
2022-08-19T15:51:47.538Z,34.39
2022-08-19T15:54:21.594Z,33.97
2022-08-19T15:57:08.603Z,33.67
2022-08-19T15:59:59.989Z,33.42
2022-08-19T16:02:53.519Z,33.30
2022-08-19T16:05:44.482Z,33.13
2022-08-19T16:08:13.397Z,32.95
2022-08-19T16:10:41.922Z,32.82
2022-08-19T16:13:10.852Z,32.76
2022-08-19T16:15:44.929Z,32.69
2022-08-19T16:18:13.635Z,32.61
2022-08-19T16:20:42.133Z,32.59
2022-08-19T16:23:10.568Z,32.52
2022-08-19T16:25:39.333Z,32.44
2022-08-19T16:28:09.751Z,32.53
2022-08-19T16:30:42.840Z,32.84
2022-08-19T16:33:22.669Z,33.00
2022-08-19T16:35:56.079Z,32.94
2022-08-19T16:38:29.790Z,32.84
2022-08-19T16:41:00.485Z,32.89
2022-08-19T16:43:31.913Z,33.06
2022-08-19T16:46:02.474Z,33.04
2022-08-19T16:48:32.924Z,32.91
2022-08-19T16:51:02.640Z,32.78
2022-08-19T16:53:32.068Z,32.57
2022-08-19T16:56:01.520Z,32.39
2022-08-19T16:58:33.988Z,32.11
2022-08-19T17:01:07.566Z,31.83
2022-08-19T17:03:37.664Z,31.52
2022-08-19T17:06:20.355Z,31.23
2022-08-19T17:08:50.158Z,30.96
2022-08-19T17:11:19.834Z,30.74
2022-08-19T17:13:49.395Z,30.60
2022-08-19T17:16:22.064Z,30.44
2022-08-19T17:18:52.817Z,30.31
2022-08-19T17:21:21.745Z,30.20
2022-08-19T17:23:50.628Z,30.12
2022-08-19T17:26:19.821Z,30.11
2022-08-19T17:28:50.213Z,30.28
2022-08-19T17:31:23.948Z,30.45
2022-08-19T17:33:52.861Z,30.59
2022-08-19T17:36:26.294Z,30.60
2022-08-19T17:38:56.631Z,30.57
2022-08-19T17:41:25.693Z,30.61
2022-08-19T17:43:54.437Z,30.66
2022-08-19T17:46:24.310Z,30.71
2022-08-19T17:48:57.628Z,30.71
2022-08-19T17:51:42.196Z,30.60
2022-08-19T17:54:15.200Z,30.43
2022-08-19T17:56:46.198Z,30.35
2022-08-19T17:59:15.654Z,30.25
2022-08-19T18:01:53.930Z,30.09
2022-08-19T18:04:24.789Z,29.92
2022-08-19T18:06:54.907Z,29.76
2022-08-19T18:09:26.244Z,29.61
2022-08-19T18:11:56.781Z,29.42
2022-08-19T18:14:33.787Z,29.26
2022-08-19T18:17:09.468Z,29.10
2022-08-19T18:19:42.188Z,28.96
2022-08-19T18:22:26.676Z,28.79
2022-08-19T18:24:56.079Z,28.67
2022-08-19T18:27:24.846Z,28.56
2022-08-19T18:29:56.633Z,28.45
2022-08-19T18:32:27.421Z,28.35
2022-08-19T18:34:56.131Z,28.23
2022-08-19T18:37:26.656Z,28.14
2022-08-19T18:40:12.944Z,28.05
2022-08-19T18:43:02.166Z,27.93
2022-08-19T18:45:48.337Z,27.77
2022-08-19T18:48:35.631Z,27.67
2022-08-19T18:51:04.561Z,27.57
2022-08-19T18:53:37.655Z,27.47
2022-08-19T18:56:06.609Z,27.40
2022-08-19T18:58:35.981Z,27.30
2022-08-19T19:01:10.774Z,27.21
2022-08-19T19:03:45.244Z,27.14
2022-08-19T19:06:16.089Z,27.05
2022-08-19T19:08:44.588Z,26.96
2022-08-19T19:11:13.309Z,26.89
2022-08-19T19:13:42.145Z,26.80
2022-08-19T19:16:11.570Z,26.71
2022-08-19T19:18:42.534Z,26.62
2022-08-19T19:21:11.692Z,26.54
2022-08-19T19:23:42.360Z,26.49
2022-08-19T19:26:11.829Z,26.42
2022-08-19T19:28:48.044Z,26.38
2022-08-19T19:31:22.741Z,26.33
2022-08-19T19:33:52.336Z,26.23
2022-08-19T19:36:21.341Z,26.21
2022-08-19T19:38:49.796Z,26.19
2022-08-19T19:41:23.361Z,26.17
2022-08-19T19:44:10.103Z,26.14
2022-08-19T19:46:42.372Z,26.11
2022-08-19T19:49:13.353Z,26.07
2022-08-19T19:51:43.361Z,26.03
2022-08-19T19:54:14.649Z,25.98
2022-08-19T19:56:45.050Z,25.92
2022-08-19T19:59:13.974Z,25.85
2022-08-19T20:01:46.857Z,25.79
2022-08-19T20:04:18.316Z,25.73
2022-08-19T20:06:47.816Z,25.66
2022-08-19T20:09:19.709Z,25.60
2022-08-19T20:11:53.498Z,25.56
2022-08-19T20:14:25.169Z,25.50
2022-08-19T20:16:55.636Z,25.45
2022-08-19T20:19:28.227Z,25.39
2022-08-19T20:21:57.628Z,25.34
2022-08-19T20:24:33.096Z,25.28
2022-08-19T20:27:02.529Z,25.22
2022-08-19T20:29:39.059Z,25.17
2022-08-19T20:32:10.014Z,25.11
2022-08-19T20:34:41.043Z,25.04
2022-08-19T20:37:09.861Z,24.99
2022-08-19T20:39:38.699Z,24.94
2022-08-19T20:42:07.504Z,24.88
2022-08-19T20:44:36.301Z,24.81
2022-08-19T20:47:04.852Z,24.76
2022-08-19T20:49:33.488Z,24.69
2022-08-19T20:52:06.240Z,24.64
2022-08-19T20:54:34.726Z,24.56
2022-08-19T20:57:05.359Z,24.52
2022-08-19T20:59:34.377Z,24.47
2022-08-19T21:02:02.726Z,24.43
2022-08-19T21:04:31.144Z,24.36
2022-08-19T21:06:59.853Z,24.31
2022-08-19T21:09:29.670Z,24.27
2022-08-19T21:11:58.069Z,24.21
2022-08-19T21:14:26.548Z,24.15
2022-08-19T21:16:55.432Z,24.13
2022-08-19T21:19:24.285Z,24.08
2022-08-19T21:21:53.720Z,24.04
2022-08-19T21:24:26.342Z,24.01
2022-08-19T21:27:01.717Z,23.97
2022-08-19T21:29:32.036Z,23.94
2022-08-19T21:32:00.475Z,23.90
2022-08-19T21:34:29.445Z,23.85
2022-08-19T21:36:57.833Z,23.81
2022-08-19T21:39:26.228Z,23.78
2022-08-19T21:41:54.756Z,23.74
2022-08-19T21:44:24.517Z,23.72
2022-08-19T21:46:52.920Z,23.68
2022-08-19T21:49:21.333Z,23.64
2022-08-19T21:51:50.030Z,23.62
2022-08-19T21:54:18.452Z,23.58
2022-08-19T21:56:47.403Z,23.55
2022-08-19T21:59:16.866Z,23.51
2022-08-19T22:01:51.973Z,23.47
2022-08-19T22:04:25.096Z,23.43
2022-08-19T22:06:55.205Z,23.40
2022-08-19T22:09:23.823Z,23.37
2022-08-19T22:11:52.204Z,23.34
2022-08-19T22:14:20.861Z,23.31
2022-08-19T22:16:50.573Z,23.26
2022-08-19T22:19:18.990Z,23.19
2022-08-19T22:21:47.344Z,23.14
2022-08-19T22:24:15.706Z,23.08
2022-08-19T22:26:44.136Z,23.02
2022-08-19T22:29:15.700Z,22.98
2022-08-19T22:31:46.128Z,22.95
2022-08-19T22:34:24.790Z,22.90
2022-08-19T22:36:53.212Z,22.86
2022-08-19T22:39:21.549Z,22.83
2022-08-19T22:41:49.998Z,22.82
2022-08-19T22:44:18.405Z,22.79
2022-08-19T22:46:46.753Z,22.79
2022-08-19T22:49:15.144Z,22.79
2022-08-19T22:52:02.400Z,22.77
2022-08-19T22:54:31.008Z,22.77
2022-08-19T22:57:00.028Z,22.75
2022-08-19T22:59:28.614Z,22.73
2022-08-19T23:01:57.049Z,22.71
2022-08-19T23:04:25.756Z,22.72
2022-08-19T23:06:55.653Z,22.73
2022-08-19T23:09:24.074Z,22.73
2022-08-19T23:11:53.831Z,22.78
2022-08-19T23:14:22.309Z,22.82
2022-08-19T23:16:51.554Z,22.84
2022-08-19T23:19:22.115Z,22.87
2022-08-19T23:21:50.721Z,22.89
2022-08-19T23:24:20.608Z,22.91
2022-08-19T23:27:07.022Z,22.91
2022-08-19T23:29:53.001Z,22.90
2022-08-19T23:32:23.471Z,22.89
2022-08-19T23:34:51.992Z,22.88
2022-08-19T23:37:20.386Z,22.85
2022-08-19T23:39:52.440Z,22.84
2022-08-19T23:42:21.411Z,22.82
2022-08-19T23:44:51.305Z,22.79
2022-08-19T23:47:21.557Z,22.76
2022-08-19T23:49:50.581Z,22.73
2022-08-19T23:52:19.439Z,22.72
2022-08-19T23:54:48.201Z,22.70
2022-08-19T23:57:18.100Z,22.68
2022-08-19T23:59:46.499Z,22.64
